Time;durP1;ratioP1;P1;durP2;ratioP2;P2;SDS_P1;SDS_P2;PMS_P1;PMS_P2;Temp;Humidity;BMP_temperature;BMP_pressure;BME280_temperature;BME280_humidity;BME280_pressure;Samples;Min_cycle;Max_cycle;Signal;HPM_P1;HPM_P2
2023/09/03 00:01:03;;;;;;;15.05;4.40;;;;;;;21.92;74.30;100156.38;10542437;28;20046;-59
2023/09/03 00:06:04;;;;;;;11.90;3.63;;;;;;;21.75;74.74;100151.81;10524481;28;20151;-59
2023/09/03 00:11:05;;;;;;;12.02;4.40;;;;;;;21.73;74.96;100162.03;10511552;28;20127;-59
2023/09/03 00:16:06;;;;;;;12.20;3.75;;;;;;;21.61;75.51;100169.41;10499135;28;20044;-60
2023/09/03 00:21:06;;;;;;;12.25;4.53;;;;;;;21.26;76.04;100119.06;10498712;28;20040;-59
2023/09/03 00:26:15;;;;;;;14.05;4.75;;;;;;;21.23;78.91;100124.16;10498434;28;20089;-59
2023/09/03 00:31:16;;;;;;;16.50;4.53;;;;;;;21.34;76.81;100134.06;10498783;28;20068;-60
2023/09/03 00:36:17;;;;;;;7.60;4.03;;;;;;;21.55;76.62;100176.63;10498090;28;20129;-59
2023/09/03 00:41:17;;;;;;;15.55;4.05;;;;;;;21.49;76.97;100187.59;10530220;28;20044;-60
2023/09/03 00:46:18;;;;;;;12.93;4.45;;;;;;;21.40;77.28;100174.47;10539820;28;20044;-59
2023/09/03 00:51:19;;;;;;;23.70;4.30;;;;;;;21.26;77.71;100180.38;10564829;28;20076;-59
2023/09/03 00:56:21;;;;;;;12.07;4.00;;;;;;;21.20;77.99;100180.28;10580991;28;20040;-59
2023/09/03 01:01:22;;;;;;;10.70;4.32;;;;;;;21.12;78.57;100177.16;10581194;28;20043;-60
2023/09/03 01:06:25;;;;;;;9.02;4.25;;;;;;;20.85;78.61;100136.41;10549243;28;20112;-59
2023/09/03 01:11:52;;;;;;;22.00;5.23;;;;;;;20.99;80.59;100175.56;10537851;28;20065;-61
2023/09/03 01:17:25;;;;;;;14.90;4.43;;;;;;;20.87;80.86;100181.00;10494245;28;20097;-59
2023/09/03 01:22:36;;;;;;;19.80;4.68;;;;;;;20.80;80.05;100180.34;10466508;28;20086;-59
2023/09/03 01:27:46;;;;;;;58.05;5.72;;;;;;;20.67;80.74;100165.25;10538903;28;20501;-59
2023/09/03 01:32:49;;;;;;;18.02;4.90;;;;;;;20.42;80.98;100134.97;10538672;28;20036;-59
2023/09/03 01:37:50;;;;;;;19.33;4.40;;;;;;;20.54;80.21;100170.88;10537520;28;20056;-59
2023/09/03 01:42:51;;;;;;;19.33;4.95;;;;;;;20.37;80.69;100168.09;10538504;28;20376;-59
2023/09/03 01:48:06;;;;;;;12.88;4.93;;;;;;;20.37;83.20;100160.00;10537484;28;20070;-59
2023/09/03 01:53:42;;;;;;;13.05;4.18;;;;;;;20.45;84.00;100161.50;10537908;28;20036;-60
2023/09/03 01:58:47;;;;;;;21.75;5.43;;;;;;;19.96;82.03;100118.63;10537606;28;20036;-59
2023/09/03 02:03:49;;;;;;;17.65;5.43;;;;;;;20.24;81.99;100152.13;10537208;28;20044;-59
2023/09/03 02:08:50;;;;;;;19.98;5.20;;;;;;;20.20;81.55;100153.69;10537396;28;20047;-60
2023/09/03 02:13:51;;;;;;;111.90;9.82;;;;;;;20.15;81.63;100150.84;10537614;28;20054;-59
2023/09/03 02:18:52;;;;;;;39.53;5.93;;;;;;;20.07;81.81;100154.72;10516316;28;20041;-59
2023/09/03 02:23:52;;;;;;;17.20;5.10;;;;;;;20.05;81.71;100154.97;10494699;28;20052;-59
2023/09/03 02:28:53;;;;;;;14.80;4.50;;;;;;;20.09;81.49;100168.78;10494992;28;20040;-59
2023/09/03 02:33:54;;;;;;;14.85;5.05;;;;;;;20.03;81.81;100180.53;10498717;28;20032;-59
2023/09/03 02:39:02;;;;;;;21.38;5.07;;;;;;;20.04;83.72;100190.25;10503112;28;20071;-59
2023/09/03 02:44:03;;;;;;;74.45;8.82;;;;;;;19.93;82.30;100191.91;10502412;28;20040;-59
2023/09/03 02:49:04;;;;;;;24.65;5.85;;;;;;;19.95;83.06;100189.78;10502746;28;20514;-59
2023/09/03 02:54:05;;;;;;;18.98;5.20;;;;;;;20.02;83.41;100201.28;10502115;28;20115;-59
2023/09/03 02:59:05;;;;;;;20.95;5.22;;;;;;;20.03;83.48;100188.59;10502106;28;20060;-59
2023/09/03 03:04:06;;;;;;;17.80;5.05;;;;;;;20.17;83.39;100205.38;10501429;28;20462;-59
2023/09/03 03:09:07;;;;;;;20.13;5.25;;;;;;;20.02;83.14;100155.44;10502085;28;20040;-59
2023/09/03 03:14:08;;;;;;;15.13;4.70;;;;;;;20.35;82.89;100205.25;10501109;28;20511;-59
2023/09/03 03:19:08;;;;;;;18.13;5.18;;;;;;;20.40;82.14;100191.91;10502089;28;20480;-59
2023/09/03 03:24:09;;;;;;;19.23;5.70;;;;;;;20.56;80.78;100184.97;10500794;28;20041;-59
2023/09/03 03:29:10;;;;;;;17.30;5.50;;;;;;;20.78;79.39;100193.25;10500772;28;20117;-60
2023/09/03 03:34:11;;;;;;;18.60;5.45;;;;;;;21.11;77.76;100175.53;10516774;28;20059;-59
2023/09/03 03:39:11;;;;;;;116.40;12.10;;;;;;;21.55;75.89;100175.81;10540982;28;20138;-60
2023/09/03 03:44:12;;;;;;;72.68;7.80;;;;;;;22.34;74.10;100187.31;10540716;28;20036;-59
2023/09/03 03:49:13;;;;;;;75.35;8.48;;;;;;;22.93;72.93;100175.06;10551096;28;20039;-60
2023/09/03 03:54:14;;;;;;;155.18;18.33;;;;;;;23.46;71.03;100159.91;10538298;28;20044;-61
2023/09/03 03:59:15;;;;;;;50.78;11.07;;;;;;;23.87;69.14;100122.28;10540886;28;20048;-60
2023/09/03 04:04:15;;;;;;;33.10;9.70;;;;;;;24.64;67.80;100160.72;10541271;28;20060;-61
2023/09/03 04:09:16;;;;;;;18.77;7.05;;;;;;;25.32;65.81;100157.94;10536035;28;20044;-60
2023/09/03 04:14:17;;;;;;;28.42;12.18;;;;;;;25.76;64.08;100160.97;10512603;28;20410;-60
2023/09/03 04:19:17;;;;;;;55.20;18.75;;;;;;;26.07;63.60;100160.94;10511712;28;20079;-61
2023/09/03 04:24:18;;;;;;;45.67;13.43;;;;;;;26.10;62.92;100163.91;10508484;28;20040;-61
2023/09/03 04:29:19;;;;;;;27.58;7.55;;;;;;;25.73;63.15;100137.81;10523126;28;20044;-60
2023/09/03 04:34:20;;;;;;;37.38;7.95;;;;;;;25.71;63.42;100133.75;10516904;28;20043;-61
2023/09/03 04:39:21;;;;;;;25.67;8.23;;;;;;;25.99;62.72;100164.22;10540308;28;20044;-60
2023/09/03 04:44:21;;;;;;;23.50;6.70;;;;;;;26.11;62.16;100148.41;10540545;28;20040;-60
2023/09/03 04:49:23;;;;;;;25.92;6.60;;;;;;;26.00;62.22;100139.44;10540363;28;20403;-60
2023/09/03 04:54:24;;;;;;;19.40;6.22;;;;;;;25.94;61.96;100110.63;10539245;28;20558;-59
2023/09/03 04:59:24;;;;;;;20.23;6.57;;;;;;;26.16;61.80;100162.00;10511821;28;20146;-60
2023/09/03 05:04:25;;;;;;;18.42;6.47;;;;;;;26.37;61.30;100171.75;10523937;28;20056;-61
2023/09/03 05:09:26;;;;;;;19.08;5.78;;;;;;;26.39;60.35;100131.44;10526451;28;20040;-60
2023/09/03 05:14:26;;;;;;;15.45;5.60;;;;;;;26.90;59.60;100178.66;10520576;28;20048;-60
2023/09/03 05:19:27;;;;;;;19.45;5.95;;;;;;;27.00;58.99;100167.69;10511749;28;20049;-61
2023/09/03 05:24:28;;;;;;;12.68;5.15;;;;;;;27.02;58.61;100149.16;10502128;28;20517;-59
2023/09/03 05:29:28;;;;;;;17.02;5.45;;;;;;;27.20;57.73;100156.69;10508805;28;20044;-61
2023/09/03 05:34:29;;;;;;;20.63;5.47;;;;;;;26.93;57.74;100097.13;10526722;28;20047;-60
2023/09/03 05:39:31;;;;;;;17.92;5.57;;;;;;;27.06;57.42;100107.38;10537934;28;20063;-60
2023/09/03 05:44:32;;;;;;;21.33;5.82;;;;;;;27.54;56.88;100155.88;10521578;28;20039;-62
2023/09/03 05:49:32;;;;;;;23.55;5.80;;;;;;;27.64;56.61;100153.09;10535498;28;20568;-60
2023/09/03 05:54:34;;;;;;;13.43;5.55;;;;;;;27.80;56.50;100144.78;10529207;28;20096;-61
2023/09/03 05:59:35;;;;;;;29.52;6.35;;;;;;;28.11;56.16;100140.63;10521300;28;20044;-61
2023/09/03 06:04:36;;;;;;;16.45;5.70;;;;;;;28.10;54.62;100080.84;10531323;28;20057;-60
2023/09/03 06:09:38;;;;;;;52.13;7.72;;;;;;;28.75;54.63;100124.03;10528805;28;20127;-60
2023/09/03 06:14:38;;;;;;;17.30;5.70;;;;;;;28.93;52.68;100082.25;10536453;28;20169;-60
2023/09/03 06:19:41;;;;;;;17.02;5.80;;;;;;;29.50;50.75;100113.06;10513208;28;20044;-60
2023/09/03 06:24:42;;;;;;;14.35;6.03;;;;;;;29.47;50.73;100110.13;10533468;28;20113;-61
2023/09/03 06:29:43;;;;;;;30.98;6.32;;;;;;;29.44;50.55;100069.69;10527093;28;20181;-61
2023/09/03 06:34:44;;;;;;;9.63;4.30;;;;;;;29.75;46.92;100072.69;10520474;28;20054;-61
2023/09/03 06:39:44;;;;;;;18.38;3.60;;;;;;;30.54;41.91;100110.03;10536984;28;20044;-62
2023/09/03 06:44:45;;;;;;;10.20;3.40;;;;;;;30.90;37.38;100115.56;10534229;28;20130;-61
2023/09/03 06:49:46;;;;;;;12.93;3.83;;;;;;;31.09;36.62;100102.50;10530000;28;20048;-61
2023/09/03 06:54:47;;;;;;;18.45;5.13;;;;;;;31.14;35.54;100066.72;10537717;28;20040;-61
2023/09/03 06:59:48;;;;;;;31.20;4.07;;;;;;;31.94;35.67;100088.84;10535911;28;20117;-61
2023/09/03 07:04:49;;;;;;;17.30;3.40;;;;;;;32.15;34.43;100080.81;10508199;28;20117;-62
2023/09/03 07:09:49;;;;;;;14.05;3.28;;;;;;;32.42;33.79;100073.44;10519235;28;20182;-62
2023/09/03 07:14:51;;;;;;;25.85;4.28;;;;;;;32.51;32.59;100068.81;10521940;28;20100;-68
2023/09/03 07:19:55;;;;;;;17.33;4.13;;;;;;;32.59;31.28;100076.25;10525933;28;20618;-62
2023/09/03 07:24:55;;;;;;;33.45;5.07;;;;;;;32.54;29.76;100059.09;10521082;28;20047;-63
2023/09/03 07:29:56;;;;;;;16.17;4.18;;;;;;;32.65;29.08;100052.16;10534240;28;20503;-63
2023/09/03 07:34:57;;;;;;;17.50;3.70;;;;;;;32.72;28.80;100035.97;10506045;28;20037;-63
2023/09/03 07:39:58;;;;;;;18.27;4.03;;;;;;;32.95;28.15;100023.66;10535786;28;20056;-62
2023/09/03 07:44:58;;;;;;;13.32;3.70;;;;;;;33.16;27.98;100026.56;10526242;28;20040;-71
2023/09/03 07:50:01;;;;;;;23.35;4.40;;;;;;;33.31;28.39;100030.75;10511181;28;20113;-73
2023/09/03 07:55:02;;;;;;;14.50;3.38;;;;;;;33.45;28.50;100027.78;10516851;28;20093;-71
2023/09/03 08:00:03;;;;;;;24.90;4.90;;;;;;;33.41;27.52;100024.88;10531461;28;20055;-72
2023/09/03 08:05:05;;;;;;;17.97;4.50;;;;;;;33.02;27.64;99957.16;10517402;28;20052;-71
2023/09/03 08:10:07;;;;;;;29.17;4.55;;;;;;;33.39;27.75;100009.84;10534357;28;20773;-69
2023/09/03 08:15:08;;;;;;;26.27;4.53;;;;;;;33.29;27.56;99963.38;10531765;28;20097;-72
2023/09/03 08:20:09;;;;;;;18.08;4.25;;;;;;;33.73;27.69;100006.16;10534921;28;20048;-76
2023/09/03 08:25:10;;;;;;;10.88;4.10;;;;;;;33.69;28.02;100015.44;10541332;28;20131;-71
2023/09/03 08:30:20;;;;;;;25.15;4.60;;;;;;;33.80;28.89;100008.38;10533464;28;20051;-73
2023/09/03 08:35:21;;;;;;;19.48;4.20;;;;;;;33.88;28.66;100035.09;10525111;28;20062;-72
2023/09/03 08:40:24;;;;;;;31.37;5.07;;;;;;;33.91;28.22;100030.88;10500476;28;20088;-74
2023/09/03 08:45:31;;;;;;;12.10;3.60;;;;;;;33.78;27.45;100013.44;10509366;28;20143;-77
2023/09/03 08:50:33;;;;;;;14.45;4.65;;;;;;;33.86;27.13;100024.41;10498253;28;20127;-72
2023/09/03 08:55:34;;;;;;;11.60;4.07;;;;;;;33.88;27.63;99985.50;10479131;28;20032;-78
2023/09/03 09:00:36;;;;;;;14.32;9.15;;;;;;;33.93;26.41;100007.34;10502286;28;20051;-74
2023/09/03 09:05:37;;;;;;;22.02;4.45;;;;;;;33.74;26.54;100002.25;10539126;28;20399;-76
2023/09/03 09:10:43;;;;;;;14.48;4.25;;;;;;;33.76;26.07;99999.19;10530005;28;20055;-73
2023/09/03 09:15:44;;;;;;;24.65;6.20;;;;;;;33.86;26.30;99985.84;10519635;28;20040;-77
2023/09/03 09:20:46;;;;;;;23.08;4.78;;;;;;;33.58;26.14;99991.00;10497195;28;20048;-73
2023/09/03 09:25:47;;;;;;;16.25;6.85;;;;;;;33.56;27.04;99981.44;10496568;28;20036;-74
2023/09/03 09:30:56;;;;;;;33.22;5.85;;;;;;;33.64;26.19;99981.41;10497245;28;20130;-77
2023/09/03 09:36:12;;;;;;;18.75;4.05;;;;;;;33.39;27.35;99932.75;10516672;28;20388;-76
2023/09/03 09:41:26;;;;;;;26.50;4.53;;;;;;;33.53;26.72;99969.13;10523663;28;20494;-75
2023/09/03 09:46:31;;;;;;;50.42;5.05;;;;;;;33.31;26.44;99963.88;10526627;28;20054;-71
2023/09/03 09:51:32;;;;;;;25.38;5.32;;;;;;;33.03;26.93;99917.50;10537951;28;20487;-74
2023/09/03 09:56:37;;;;;;;33.97;4.65;;;;;;;33.45;27.08;99961.72;10528132;28;20119;-70
2023/09/03 10:01:46;;;;;;;21.30;4.35;;;;;;;33.52;26.86;99966.72;10500846;28;20048;-74
2023/09/03 10:06:48;;;;;;;15.88;3.70;;;;;;;33.74;27.28;99958.16;10493902;28;20507;-73
2023/09/03 10:11:48;;;;;;;18.23;3.73;;;;;;;33.86;26.48;99952.78;10495862;28;20076;-69
2023/09/03 10:16:52;;;;;;;15.52;3.88;;;;;;;33.74;26.44;99947.16;10503260;28;20753;-69
2023/09/03 10:21:55;;;;;;;9.10;3.50;;;;;;;33.54;26.01;99907.44;10536356;28;20094;-69
2023/09/03 10:27:00;;;;;;;15.68;4.10;;;;;;;33.63;26.00;99927.47;10537754;28;20131;-69
2023/09/03 10:32:03;;;;;;;20.45;4.90;;;;;;;33.69;26.86;99924.53;10536432;28;20496;-68
2023/09/03 10:37:09;;;;;;;23.75;4.45;;;;;;;33.46;27.52;99896.44;10518791;28;20498;-69
2023/09/03 10:42:16;;;;;;;54.28;5.10;;;;;;;33.54;26.46;99945.19;10536697;28;20040;-69
2023/09/03 10:47:18;;;;;;;18.42;4.18;;;;;;;33.30;27.44;99934.75;10531195;28;20040;-68
2023/09/03 10:52:28;;;;;;;59.23;6.63;;;;;;;33.38;27.29;99947.63;10517730;28;20052;-69
2023/09/03 10:57:31;;;;;;;21.75;4.18;;;;;;;33.21;27.82;99933.94;10515425;28;20040;-68
2023/09/03 11:02:34;;;;;;;20.60;4.47;;;;;;;32.89;27.57;99908.63;10529209;28;20041;-76
2023/09/03 11:07:35;;;;;;;22.17;4.65;;;;;;;32.97;27.61;99935.31;10520844;28;20045;-73
2023/09/03 11:12:37;;;;;;;20.70;4.63;;;;;;;32.91;27.35;99940.16;10531803;28;20044;-69
2023/09/03 11:17:37;;;;;;;23.40;4.28;;;;;;;32.87;27.75;99930.13;10501747;28;20041;-70
2023/09/03 11:22:39;;;;;;;21.30;4.13;;;;;;;32.83;27.98;99938.25;10501012;28;20055;-66
2023/09/03 11:27:48;;;;;;;16.88;4.15;;;;;;;32.69;27.75;99918.34;10502393;28;20055;-72
2023/09/03 11:32:49;;;;;;;15.63;4.05;;;;;;;32.68;28.13;99930.50;10517714;28;20051;-70
2023/09/03 11:37:52;;;;;;;11.70;3.60;;;;;;;32.78;28.10;99956.84;10542841;28;20418;-76
2023/09/03 11:42:53;;;;;;;21.42;4.05;;;;;;;32.74;28.32;99941.00;10543179;28;20067;-71
2023/09/03 11:47:54;;;;;;;11.68;3.80;;;;;;;32.81;27.89;99947.94;10542091;28;20074;-72
2023/09/03 11:52:58;;;;;;;17.23;4.75;;;;;;;32.82;28.55;99942.13;10523587;28;20079;-72
2023/09/03 11:58:01;;;;;;;63.33;20.02;;;;;;;32.75;28.66;99933.56;10534972;28;20036;-71
2023/09/03 12:03:03;;;;;;;28.42;6.57;;;;;;;32.52;28.85;99894.47;10540318;28;20064;-72
2023/09/03 12:08:05;;;;;;;18.98;4.35;;;;;;;32.58;28.41;99906.09;10522013;28;20048;-71
2023/09/03 12:13:06;;;;;;;18.53;4.67;;;;;;;32.56;28.49;99933.91;10540554;28;20040;-72
2023/09/03 12:18:08;;;;;;;11.10;4.13;;;;;;;32.48;28.07;99920.97;10540721;28;20487;-75
2023/09/03 12:23:18;;;;;;;18.40;4.03;;;;;;;32.41;28.33;99901.41;10523587;28;20036;-75
2023/09/03 12:28:34;;;;;;;20.83;4.38;;;;;;;32.56;28.44;99909.16;10505124;28;20097;-74
2023/09/03 12:33:44;;;;;;;11.40;4.60;;;;;;;32.48;28.53;99907.22;10513709;28;20525;-73
2023/09/03 12:38:56;;;;;;;17.02;4.68;;;;;;;32.40;28.44;99880.53;10519028;28;20043;-69
2023/09/03 12:44:05;;;;;;;18.38;4.50;;;;;;;32.49;29.12;99878.63;10489802;28;20040;-78
2023/09/03 12:49:05;;;;;;;24.27;5.28;;;;;;;32.53;28.55;99865.84;10515820;28;20138;-76
2023/09/03 12:54:06;;;;;;;28.38;5.47;;;;;;;31.99;29.51;99783.75;10531175;28;20032;-76
2023/09/03 12:59:07;;;;;;;12.13;4.80;;;;;;;32.45;28.90;99874.91;10509815;28;20506;-76
2023/09/03 13:04:11;;;;;;;20.08;4.30;;;;;;;32.33;29.70;99892.00;10527898;28;20052;-75
2023/09/03 13:09:12;;;;;;;25.98;5.20;;;;;;;32.02;29.17;99878.47;10509273;28;20043;-75
2023/09/03 13:14:14;;;;;;;22.48;5.07;;;;;;;31.88;29.45;99861.28;10529728;28;20415;-81
2023/09/03 13:19:15;;;;;;;10.40;4.43;;;;;;;31.54;29.38;99821.69;10528404;28;20407;-81
2023/09/03 13:24:16;;;;;;;15.48;4.22;;;;;;;31.83;29.93;99896.03;10531810;28;20052;-78
2023/09/03 13:29:17;;;;;;;23.75;4.65;;;;;;;31.77;29.62;99889.06;10532927;28;20170;-71
2023/09/03 13:34:17;;;;;;;19.27;4.20;;;;;;;31.11;29.99;99803.13;10537936;28;20053;-71
2023/09/03 13:39:18;;;;;;;14.15;4.43;;;;;;;31.69;29.89;99911.81;10538476;28;20097;-71
2023/09/03 13:44:19;;;;;;;19.77;4.57;;;;;;;31.61;29.95;99927.13;10537902;28;20032;-71
2023/09/03 13:49:19;;;;;;;17.55;5.00;;;;;;;31.40;30.35;99908.84;10537278;28;20066;-71
2023/09/03 13:54:20;;;;;;;20.45;4.53;;;;;;;31.34;30.63;99930.09;10537650;28;20032;-71
2023/09/03 13:59:21;;;;;;;19.15;4.45;;;;;;;31.11;30.26;99901.91;10535860;28;20058;-69
2023/09/03 14:04:22;;;;;;;32.47;5.60;;;;;;;30.91;30.73;99893.09;10491416;28;20048;-70
2023/09/03 14:09:22;;;;;;;36.83;5.63;;;;;;;31.05;30.87;99952.53;10529197;28;20517;-70
2023/09/03 14:14:23;;;;;;;25.85;4.90;;;;;;;31.05;31.01;99980.81;10505613;28;20039;-70
2023/09/03 14:19:24;;;;;;;38.90;5.88;;;;;;;30.98;31.11;99985.91;10504918;28;20050;-70
2023/09/03 14:24:25;;;;;;;190.90;14.77;;;;;;;30.84;31.12;99991.50;10537203;28;20044;-73
2023/09/03 14:29:26;;;;;;;55.38;6.25;;;;;;;30.78;31.49;100002.84;10538462;28;20040;-70
2023/09/03 14:34:27;;;;;;;40.22;4.93;;;;;;;30.39;31.50;99953.03;10544959;28;20071;-71
2023/09/03 14:39:27;;;;;;;37.97;5.00;;;;;;;30.52;31.39;99987.00;10544778;28;20043;-69
2023/09/03 14:44:28;;;;;;;61.60;7.47;;;;;;;30.55;31.71;100000.09;10545076;28;20036;-70
2023/09/03 14:49:38;;;;;;;30.20;5.00;;;;;;;30.50;32.09;100004.88;10544685;28;20032;-70
2023/09/03 14:54:39;;;;;;;18.00;4.25;;;;;;;30.39;32.04;99999.63;10544079;28;20070;-70
2023/09/03 14:59:39;;;;;;;24.20;5.05;;;;;;;30.31;32.51;99988.59;10544314;28;20036;-70
2023/09/03 15:04:40;;;;;;;22.98;4.53;;;;;;;30.19;32.66;99991.84;10543698;28;20485;-69
2023/09/03 15:09:41;;;;;;;20.35;4.40;;;;;;;30.06;33.15;100001.69;10543978;28;20044;-72
2023/09/03 15:14:42;;;;;;;27.67;5.05;;;;;;;29.90;33.38;99994.91;10544024;28;20040;-70
2023/09/03 15:19:43;;;;;;;27.15;4.72;;;;;;;29.46;32.91;99941.56;10542980;28;20055;-70
2023/09/03 15:24:44;;;;;;;25.40;4.65;;;;;;;29.67;33.16;99992.06;10544022;28;20044;-70
2023/09/03 15:29:45;;;;;;;15.27;4.60;;;;;;;29.36;33.25;99959.00;10543634;28;20043;-70
2023/09/03 15:34:46;;;;;;;29.52;5.50;;;;;;;29.39;32.99;99976.72;10543728;28;20074;-71
2023/09/03 15:39:46;;;;;;;22.38;6.30;;;;;;;29.33;32.54;99967.81;10541708;28;20051;-69
2023/09/03 15:44:47;;;;;;;42.15;14.32;;;;;;;29.23;32.70;99957.06;10542123;28;20035;-71
2023/09/03 15:49:48;;;;;;;23.05;9.07;;;;;;;29.02;33.05;99945.69;10541908;28;20032;-71
2023/09/03 15:54:49;;;;;;;64.38;20.67;;;;;;;28.94;32.87;99947.13;10540940;28;20043;-70
2023/09/03 15:59:49;;;;;;;48.03;18.90;;;;;;;28.62;33.10;99896.81;10542312;28;20048;-70
2023/09/03 16:04:52;;;;;;;31.83;13.40;;;;;;;28.89;33.17;99947.22;10523573;28;20055;-70
2023/09/03 16:09:52;;;;;;;19.87;7.77;;;;;;;28.53;32.54;99890.41;10540371;28;20039;-70
2023/09/03 16:14:53;;;;;;;46.53;25.83;;;;;;;28.77;32.94;99944.94;10517991;28;20048;-72
2023/09/03 16:19:54;;;;;;;39.38;12.20;;;;;;;28.85;32.82;99954.41;10532992;28;20036;-70
2023/09/03 16:24:56;;;;;;;30.80;9.50;;;;;;;28.77;32.80;99935.94;10540991;28;20044;-70
2023/09/03 16:29:56;;;;;;;37.97;9.18;;;;;;;28.65;32.64;99909.09;10540908;28;20040;-70
2023/09/03 16:34:58;;;;;;;23.30;5.97;;;;;;;28.65;32.74;99900.88;10540630;28;20127;-69
2023/09/03 16:39:58;;;;;;;20.42;5.43;;;;;;;28.38;33.16;99871.53;10540486;28;20553;-70
2023/09/03 16:44:59;;;;;;;19.58;5.10;;;;;;;28.45;33.04;99896.59;10521348;28;20115;-70
2023/09/03 16:50:00;;;;;;;30.52;5.43;;;;;;;28.36;33.07;99899.16;10522965;28;20040;-71
2023/09/03 16:55:01;;;;;;;27.58;4.25;;;;;;;28.31;33.04;99942.13;10516162;28;20032;-72
2023/09/03 17:00:04;;;;;;;20.30;3.80;;;;;;;28.21;33.25;99957.53;10518604;28;20089;-71
2023/09/03 17:05:05;;;;;;;31.17;4.10;;;;;;;28.07;33.51;99986.69;10527339;28;20060;-70
2023/09/03 17:10:07;;;;;;;23.20;3.63;;;;;;;27.63;33.75;99945.97;10521962;28;20509;-71
2023/09/03 17:15:08;;;;;;;29.88;3.92;;;;;;;27.83;34.34;100013.19;10520700;28;20513;-71
2023/09/03 17:20:09;;;;;;;18.80;3.83;;;;;;;27.69;34.97;100013.84;10517773;28;20040;-71
2023/09/03 17:25:10;;;;;;;17.65;3.63;;;;;;;27.62;35.58;100009.84;10519610;28;20040;-71
2023/09/03 17:30:11;;;;;;;16.80;3.78;;;;;;;27.37;35.79;99997.28;10515784;28;20032;-71
2023/09/03 17:35:12;;;;;;;21.73;3.10;;;;;;;27.27;36.75;100001.72;10516091;28;20039;-71
2023/09/03 17:40:17;;;;;;;18.80;3.20;;;;;;;27.13;36.71;99991.75;10518196;28;20220;-71
2023/09/03 17:45:18;;;;;;;15.02;3.10;;;;;;;27.08;37.54;99973.53;10515248;28;20036;-70
2023/09/03 17:50:19;;;;;;;20.17;3.20;;;;;;;26.99;37.70;99992.41;10516966;28;20036;-70
2023/09/03 17:55:19;;;;;;;24.98;2.95;;;;;;;26.90;38.35;99976.97;10519060;28;20091;-71
2023/09/03 18:00:20;;;;;;;29.73;2.92;;;;;;;26.72;38.96;99965.66;10516778;28;20043;-72
2023/09/03 18:05:23;;;;;;;17.60;2.97;;;;;;;26.30;39.54;99917.19;10515873;28;20084;-72
2023/09/03 18:10:24;;;;;;;;;;;;;;;26.70;39.77;99981.47;10512108;28;20491;-71
2023/09/03 18:15:25;;;;;;;18.80;2.92;;;;;;;26.08;40.66;99917.56;10513744;28;19920;-72
2023/09/03 18:20:26;;;;;;;16.55;2.72;;;;;;;26.31;40.89;99963.19;10517576;28;20051;-72
2023/09/03 18:25:26;;;;;;;18.35;2.97;;;;;;;26.19;41.38;99966.22;10536665;28;20044;-74
2023/09/03 18:30:27;;;;;;;18.95;2.95;;;;;;;25.78;42.43;99924.75;10537460;28;20040;-70
2023/09/03 18:35:28;;;;;;;21.00;2.97;;;;;;;25.60;42.73;99903.63;10536528;28;20044;-71
2023/09/03 18:40:30;;;;;;;12.23;2.85;;;;;;;25.50;43.71;99890.91;10518357;28;20112;-71
2023/09/03 18:45:31;;;;;;;21.10;2.28;;;;;;;25.83;44.43;99945.75;10537081;28;20032;-72
2023/09/03 18:50:35;;;;;;;18.50;2.90;;;;;;;25.76;46.20;99943.31;10536975;28;20047;-71
2023/09/03 18:55:37;;;;;;;20.73;2.92;;;;;;;25.34;46.47;99868.41;10536118;28;20487;-70
2023/09/03 19:00:38;;;;;;;11.50;2.47;;;;;;;25.19;47.06;99854.84;10536894;28;20047;-70
2023/09/03 19:05:43;;;;;;;14.75;2.80;;;;;;;25.45;47.55;99916.19;10535766;28;20433;-71
2023/09/03 19:10:53;;;;;;;22.90;3.47;;;;;;;25.34;48.09;99902.91;10508331;28;20131;-71
2023/09/03 19:15:55;;;;;;;12.45;2.90;;;;;;;25.08;48.34;99880.41;10539017;28;20044;-71
2023/09/03 19:20:56;;;;;;;22.65;3.58;;;;;;;25.16;48.87;99913.31;10543828;28;20122;-70
2023/09/03 19:25:57;;;;;;;17.10;2.97;;;;;;;25.00;49.10;99904.31;10543557;28;20118;-71
2023/09/03 19:30:57;;;;;;;18.48;3.10;;;;;;;24.93;49.53;99909.22;10543540;28;20068;-71
2023/09/03 19:35:59;;;;;;;15.55;2.78;;;;;;;24.90;50.24;99917.91;10542743;28;20040;-71
2023/09/03 19:40:59;;;;;;;13.18;3.28;;;;;;;24.85;50.81;99904.34;10539707;28;20139;-71
2023/09/03 19:46:00;;;;;;;18.30;3.00;;;;;;;24.74;51.42;99899.97;10541474;28;20143;-70
2023/09/03 19:51:02;;;;;;;15.10;2.92;;;;;;;24.65;52.03;99886.16;10540963;28;20208;-71
2023/09/03 19:56:04;;;;;;;14.85;2.85;;;;;;;24.61;52.79;99893.22;10542433;28;20047;-72
2023/09/03 20:01:06;;;;;;;12.50;3.10;;;;;;;24.20;53.11;99829.91;10523143;28;20050;-70
2023/09/03 20:06:06;;;;;;;14.23;3.08;;;;;;;24.43;53.67;99872.84;10541262;28;20052;-69
2023/09/03 20:11:09;;;;;;;14.43;2.63;;;;;;;24.21;54.02;99828.84;10541154;28;20039;-71
2023/09/03 20:16:10;;;;;;;18.70;2.87;;;;;;;24.25;54.41;99843.50;10541762;28;20399;-71
2023/09/03 20:21:12;;;;;;;15.77;2.67;;;;;;;24.16;54.61;99843.22;10542000;28;20047;-71
2023/09/03 20:26:13;;;;;;;10.93;2.60;;;;;;;24.08;55.58;99850.00;10540598;28;20158;-71
2023/09/03 20:31:14;;;;;;;15.45;3.35;;;;;;;24.03;55.99;99868.97;10540243;28;20177;-71
2023/09/03 20:36:15;;;;;;;13.27;3.13;;;;;;;23.30;56.72;99762.44;10540356;28;20515;-71
2023/09/03 20:41:16;;;;;;;16.05;2.97;;;;;;;23.76;57.63;99858.34;10538994;28;20487;-70
2023/09/03 20:46:17;;;;;;;8.32;3.35;;;;;;;23.54;58.95;99831.38;10539931;28;20040;-70
2023/09/03 20:51:18;;;;;;;14.85;3.05;;;;;;;23.73;59.83;99849.94;10539615;28;20077;-71
2023/09/03 20:56:19;;;;;;;15.93;3.50;;;;;;;23.58;60.53;99835.19;10522030;28;20046;-70
2023/09/03 21:01:21;;;;;;;13.40;3.13;;;;;;;23.53;60.92;99837.88;10539571;28;20488;-71
2023/09/03 21:06:21;;;;;;;21.00;3.65;;;;;;;23.17;62.08;99788.97;10539385;28;20067;-70
2023/09/03 21:11:22;;;;;;;8.52;3.17;;;;;;;23.21;62.76;99797.38;10538752;28;20051;-70
2023/09/03 21:16:23;;;;;;;10.27;3.20;;;;;;;23.30;64.03;99825.59;10539302;28;20036;-70
2023/09/03 21:21:25;;;;;;;12.43;3.03;;;;;;;22.97;64.19;99780.75;10538554;28;20044;-70
2023/09/03 21:26:27;;;;;;;9.65;3.40;;;;;;;23.13;64.51;99827.72;10538593;28;20509;-72
2023/09/03 21:31:27;;;;;;;10.45;3.13;;;;;;;23.12;65.20;99840.41;10538603;28;20040;-70
2023/09/03 21:36:28;;;;;;;6.50;3.05;;;;;;;23.08;66.06;99847.44;10538460;28;20040;-69
2023/09/03 21:41:29;;;;;;;8.32;3.05;;;;;;;23.02;66.91;99848.50;10537523;28;20058;-70
2023/09/03 21:46:30;;;;;;;12.02;3.45;;;;;;;23.03;67.21;99874.50;10537865;28;20497;-70
2023/09/03 21:51:30;;;;;;;11.98;3.58;;;;;;;22.96;67.99;99865.78;10539712;28;20047;-70
2023/09/03 21:56:31;;;;;;;7.03;3.22;;;;;;;22.90;68.12;99854.06;10544280;28;20038;-70
2023/09/03 22:01:32;;;;;;;7.35;3.28;;;;;;;22.93;68.24;99871.69;10561276;28;20043;-70
2023/09/03 22:06:33;;;;;;;6.72;3.10;;;;;;;22.68;68.28;99837.16;10579974;28;20108;-69
2023/09/03 22:11:33;;;;;;;12.05;3.17;;;;;;;23.07;68.24;99893.78;10580163;28;20401;-70
2023/09/03 22:16:34;;;;;;;8.77;3.00;;;;;;;23.12;68.13;99896.50;10580191;28;20043;-70
2023/09/03 22:21:35;;;;;;;9.30;3.20;;;;;;;23.12;68.06;99905.44;10578845;28;20043;-70
2023/09/03 22:26:36;;;;;;;15.02;3.20;;;;;;;23.11;68.19;99901.09;10578948;28;20427;-70
2023/09/03 22:31:37;;;;;;;9.55;3.22;;;;;;;23.10;68.35;99902.19;10579209;28;20040;-70
2023/09/03 22:36:37;;;;;;;48.05;5.07;;;;;;;22.97;68.24;99891.78;10579140;28;20032;-70
2023/09/03 22:41:38;;;;;;;8.52;3.28;;;;;;;22.97;67.94;99905.34;10579010;28;20503;-71
2023/09/03 22:46:39;;;;;;;8.32;2.90;;;;;;;22.97;68.24;99897.22;10579192;28;20031;-70
2023/09/03 22:51:40;;;;;;;11.07;2.95;;;;;;;23.01;68.17;99893.72;10565715;28;20039;-69
2023/09/03 22:56:40;;;;;;;8.93;2.90;;;;;;;22.84;68.34;99873.28;10566764;28;20040;-70
2023/09/03 23:01:41;;;;;;;9.63;3.00;;;;;;;23.02;68.29;99889.13;10544428;28;20048;-70